Time;durP1;ratioP1;P1;durP2;ratioP2;P2;SDS_P1;SDS_P2;PMS_P1;PMS_P2;Temp;Humidity;BMP_temperature;BMP_pressure;BME280_temperature;BME280_humidity;BME280_pressure;Samples;Min_cycle;Max_cycle;Signal;HPM_P1;HPM_P2
2022/10/12 00:01:44;;;;;;;10.80;3.25;;;;;;;;;;5054260;28;20361;-81
2022/10/12 00:04:10;;;;;;;8.13;3.10;;;;;;;;;;5057772;28;20052;-80
2022/10/12 00:06:36;;;;;;;10.43;3.78;;;;;;;;;;5036928;28;20100;-81
2022/10/12 00:09:05;;;;;;;10.05;3.33;;;;;;;;;;5050691;28;20038;-81
2022/10/12 00:11:31;;;;;;;11.80;3.97;;;;;;;;;;5015361;28;20022;-83
2022/10/12 00:13:58;;;;;;;9.25;3.42;;;;;;;;;;5055129;28;20016;-81
2022/10/12 00:16:25;;;;;;;11.75;3.20;;;;;;;;;;5052946;28;20017;-82
2022/10/12 00:18:52;;;;;;;11.98;3.53;;;;;;;;;;5051626;28;20021;-84
2022/10/12 00:21:18;;;;;;;10.75;3.40;;;;;;;;;;5032284;28;20022;-81
2022/10/12 00:23:50;;;;;;;7.90;3.08;;;;;;;;;;5041149;28;20092;-81
2022/10/12 00:26:18;;;;;;;12.70;3.53;;;;;;;;;;5052835;28;20040;-84
2022/10/12 00:28:44;;;;;;;9.38;2.85;;;;;;;;;;5049382;28;20024;-84
2022/10/12 00:31:12;;;;;;;9.68;3.25;;;;;;;;;;5047369;28;20018;-82
2022/10/12 00:33:39;;;;;;;9.45;2.92;;;;;;;;;;5051159;28;20022;-81
2022/10/12 00:36:11;;;;;;;8.90;2.83;;;;;;;;;;5046997;28;20073;-82
2022/10/12 00:38:37;;;;;;;7.72;2.78;;;;;;;;;;5042867;28;20041;-82
2022/10/12 00:41:04;;;;;;;10.27;3.40;;;;;;;;;;5016606;28;20026;-83
2022/10/12 00:43:38;;;;;;;9.38;3.08;;;;;;;;;;5046667;28;20086;-83
2022/10/12 00:46:15;;;;;;;9.15;2.63;;;;;;;;;;5053470;28;20029;-82
2022/10/12 00:48:41;;;;;;;10.98;2.85;;;;;;;;;;5050755;28;20030;-83
2022/10/12 00:53:41;;;;;;;10.55;3.13;;;;;;;;;;5046939;23;20056;-90
2022/10/12 00:56:10;;;;;;;11.00;2.42;;;;;;;;;;5017479;28;20042;-86
2022/10/12 00:58:37;;;;;;;8.43;3.20;;;;;;;;;;5004641;28;20032;-89
2022/10/12 01:01:03;;;;;;;7.03;2.95;;;;;;;;;;5043892;28;20018;-86
2022/10/12 01:03:29;;;;;;;9.20;3.00;;;;;;;;;;5048483;28;20121;-88
2022/10/12 01:05:55;;;;;;;16.85;4.05;;;;;;;;;;5049796;28;20013;-88
2022/10/12 01:08:22;;;;;;;6.65;2.80;;;;;;;;;;5013842;28;20048;-85
2022/10/12 01:10:50;;;;;;;9.38;3.15;;;;;;;;;;4999464;28;20014;-86
2022/10/12 01:13:17;;;;;;;9.98;2.88;;;;;;;;;;5012589;28;20080;-89
2022/10/12 01:15:47;;;;;;;8.38;2.67;;;;;;;;;;5019638;28;20108;-86
2022/10/12 01:18:19;;;;;;;8.75;2.58;;;;;;;;;;5020237;28;20049;-87
2022/10/12 01:21:04;;;;;;;8.20;2.67;;;8.90;99.90;;;;;;5019971;28;20041;-84
2022/10/12 01:23:45;;;;;;;8.27;2.60;;;;;;;;;;5019151;28;20077;-86
2022/10/12 01:26:50;;;;;;;9.27;3.03;;;8.90;99.90;;;;;;5020597;28;20109;-86
2022/10/12 01:29:51;;;;;;;10.55;3.40;;;9.00;99.90;;;;;;5000983;28;20117;-88
2022/10/12 01:32:23;;;;;;;8.98;2.47;;;;;;;;;;4974509;28;20173;-86
2022/10/12 01:35:09;;;;;;;11.48;2.70;;;;;;;;;;5021108;28;20029;-88
2022/10/12 01:37:56;;;;;;;9.40;2.58;;;;;;;;;;5015526;28;20022;-88
2022/10/12 01:41:16;;;;;;;6.00;2.50;;;8.90;99.90;;;;;;5023450;28;20029;-85
2022/10/12 01:43:43;;;;;;;10.10;2.47;;;;;;;;;;4966852;28;20027;-82
2022/10/12 01:46:13;;;;;;;10.25;2.80;;;;;;;;;;5004297;28;20225;-84
2022/10/12 01:48:40;;;;;;;10.57;2.88;;;;;;;;;;5021793;28;20210;-85
2022/10/12 01:51:06;;;;;;;7.22;2.45;;;;;;;;;;5007889;28;20025;-86
2022/10/12 01:53:35;;;;;;;8.38;2.58;;;;;;;;;;5025625;28;20029;-82
2022/10/12 01:56:06;;;;;;;12.15;3.28;;;;;;;;;;5006094;28;20022;-87
2022/10/12 01:58:55;;;;;;;11.07;2.63;;;8.80;99.90;;;;;;5032026;28;20041;-87
2022/10/12 02:01:21;;;;;;;7.25;2.47;;;;;;;;;;5019817;28;20041;-86
2022/10/12 02:03:50;;;;;;;10.90;2.67;;;;;;;;;;5015649;28;20033;-84
2022/10/12 02:06:17;;;;;;;7.32;2.42;;;;;;;;;;5002648;28;20502;-84
2022/10/12 02:08:49;;;;;;;10.15;2.78;;;;;;;;;;4997846;28;20026;-85
2022/10/12 02:11:17;;;;;;;8.38;2.50;;;;;;;;;;5030803;28;20033;-86
2022/10/12 02:13:58;;;;;;;10.93;2.60;;;;;;;;;;5016995;28;20033;-87
2022/10/12 02:16:31;;;;;;;8.15;2.40;;;;;;;;;;4998911;28;20084;-87
2022/10/12 02:18:58;;;;;;;8.30;2.38;;;;;;;;;;5017319;28;20731;-83
2022/10/12 02:21:30;;;;;;;10.20;2.47;;;;;;;;;;5015073;28;20033;-84
2022/10/12 02:23:58;;;;;;;9.40;2.60;;;;;;;;;;5022431;28;20022;-88
2022/10/12 02:26:24;;;;;;;9.55;2.38;;;;;;;;;;5019975;28;20038;-86
2022/10/12 02:28:50;;;;;;;10.98;2.85;;;;;;;;;;5001696;28;20694;-85
2022/10/12 02:31:35;;;;;;;7.13;2.53;;;;;;;;;;5023257;28;20121;-86
2022/10/12 02:34:15;;;;;;;8.27;2.80;;;8.30;99.90;;;;;;5020539;28;20029;-87
2022/10/12 02:36:47;;;;;;;5.63;2.75;;;;;;;;;;5018392;28;20026;-85
2022/10/12 02:39:15;;;;;;;6.13;2.50;;;;;;;;;;5006254;28;20106;-86
2022/10/12 02:41:45;;;;;;;12.27;2.80;;;;;;;;;;4999085;28;20360;-86
2022/10/12 02:44:13;;;;;;;10.60;2.50;;;;;;;;;;5019787;28;20185;-88
2022/10/12 02:46:40;;;;;;;13.63;2.92;;;;;;;;;;5012320;28;20176;-84
2022/10/12 02:49:06;;;;;;;7.80;2.13;;;;;;;;;;5025148;28;20036;-88
2022/10/12 02:51:33;;;;;;;7.65;2.58;;;;;;;;;;4998206;28;20092;-87
2022/10/12 02:53:59;;;;;;;10.68;3.00;;;;;;;;;;5022774;28;20049;-86
2022/10/12 02:56:25;;;;;;;9.95;2.47;;;;;;;;;;5018400;28;20072;-87
2022/10/12 02:58:51;;;;;;;7.57;2.60;;;;;;;;;;5016627;28;20029;-84
2022/10/12 03:01:17;;;;;;;12.00;2.90;;;;;;;;;;5003888;28;20508;-86
2022/10/12 03:03:44;;;;;;;9.48;2.38;;;;;;;;;;5019410;28;20034;-87
2022/10/12 03:06:10;;;;;;;12.63;2.92;;;;;;;;;;5017424;28;20025;-87
2022/10/12 03:08:36;;;;;;;11.10;2.70;;;;;;;;;;5000620;28;20038;-88
2022/10/12 03:11:03;;;;;;;8.40;2.90;;;8.00;99.90;;;;;;5018861;28;20026;-86
2022/10/12 03:13:29;;;;;;;13.50;3.08;;;;;;;;;;5020821;28;20026;-85
2022/10/12 03:16:04;;;;;;;8.15;2.45;;;;;;;;;;5020357;28;20094;-89
2022/10/12 03:18:31;;;;;;;6.28;2.50;;;;;;;;;;4997943;28;20069;-88
2022/10/12 03:20:57;;;;;;;7.78;2.78;;;;;;;;;;5021287;28;20037;-88
2022/10/12 03:23:23;;;;;;;7.68;2.30;;;;;;;;;;5029068;28;20029;-89
2022/10/12 03:25:49;;;;;;;8.73;2.42;;;;;;;;;;5036828;28;20014;-87
2022/10/12 03:28:15;;;;;;;7.80;2.60;;;;;;;;;;5036711;28;20057;-88
2022/10/12 03:30:42;;;;;;;7.60;2.78;;;;;;;;;;5018676;28;20037;-87
2022/10/12 03:33:08;;;;;;;10.75;2.70;;;;;;;;;;5029411;28;20053;-88
2022/10/12 03:35:34;;;;;;;9.48;2.42;;;;;;;;;;5019097;28;20085;-83
2022/10/12 03:38:00;;;;;;;10.63;2.45;;;;;;;;;;5016310;28;20547;-86
2022/10/12 03:40:26;;;;;;;7.30;2.30;;;;;;;;;;5020548;28;20037;-87
2022/10/12 03:42:52;;;;;;;10.88;2.85;;;;;;;;;;5003540;28;20030;-82
2022/10/12 03:45:18;;;;;;;9.32;2.60;;;;;;;;;;5014010;28;20024;-85
2022/10/12 03:47:44;;;;;;;7.60;2.85;;;;;;;;;;5020202;28;20037;-84
2022/10/12 03:50:10;;;;;;;9.52;2.20;;;;;;;;;;5019309;28;20029;-84
2022/10/12 03:52:36;;;;;;;9.95;2.55;;;;;;;;;;5020491;28;20026;-85
2022/10/12 03:55:02;;;;;;;9.93;2.75;;;;;;;;;;5019673;28;20030;-84
2022/10/12 03:57:28;;;;;;;8.70;2.88;;;;;;;;;;5009264;28;20098;-84
2022/10/12 03:59:54;;;;;;;7.15;2.53;;;;;;;;;;5017665;28;20036;-87
2022/10/12 04:02:20;;;;;;;10.38;2.53;;;;;;;;;;5014363;28;20030;-84
2022/10/12 04:04:46;;;;;;;12.25;2.95;;;;;;;;;;5015037;28;20030;-87
2022/10/12 04:07:12;;;;;;;7.57;2.53;;;;;;;;;;5008477;28;20546;-85
2022/10/12 04:09:38;;;;;;;5.95;2.30;;;;;;;;;;5021270;28;20041;-84
2022/10/12 04:12:04;;;;;;;8.98;2.83;;;;;;;;;;5020586;28;20026;-87
2022/10/12 04:14:30;;;;;;;6.28;2.42;;;;;;;;;;5005695;28;20030;-87
2022/10/12 04:16:59;;;;;;;10.07;2.85;;;;;;;;;;5024501;28;20021;-88
2022/10/12 04:19:25;;;;;;;12.15;2.92;;;;;;;;;;5020656;28;20040;-85
2022/10/12 04:21:51;;;;;;;7.20;2.22;;;;;;;;;;5028005;28;20034;-87
2022/10/12 04:24:17;;;;;;;9.50;2.63;;;;;;;;;;5026994;28;20026;-85
2022/10/12 04:26:43;;;;;;;12.25;3.08;;;;;;;;;;5026416;28;20029;-86
2022/10/12 04:29:11;;;;;;;11.27;2.63;;;;;;;;;;5021586;28;20531;-86
2022/10/12 04:31:37;;;;;;;10.52;2.55;;;;;;;;;;5026233;28;20472;-85
2022/10/12 04:34:03;;;;;;;10.45;2.72;;;;;;;;;;5019035;28;20049;-87
2022/10/12 04:36:29;;;;;;;9.98;2.83;;;;;;;;;;5016432;28;20049;-88
2022/10/12 04:38:55;;;;;;;7.90;2.88;;;;;;;;;;5018156;28;20077;-86
2022/10/12 04:41:20;;;;;;;13.13;3.10;;;;;;;;;;5014791;28;20590;-88
2022/10/12 04:43:47;;;;;;;10.80;3.00;;;;;;;;;;5017747;28;20638;-85
2022/10/12 04:46:12;;;;;;;8.60;2.75;;;;;;;;;;5013307;28;20033;-84
2022/10/12 04:48:38;;;;;;;7.82;2.47;;;;;;;;;;5015433;28;20049;-86
2022/10/12 04:51:05;;;;;;;5.47;2.60;;;;;;;;;;5016654;28;20514;-84
2022/10/12 04:53:31;;;;;;;8.00;3.13;;;;;;;;;;5017483;28;20037;-89
2022/10/12 04:55:57;;;;;;;8.43;2.75;;;;;;;;;;5024333;28;20026;-88
2022/10/12 04:58:23;;;;;;;7.55;2.75;;;;;;;;;;5020568;28;20037;-87
2022/10/12 05:00:49;;;;;;;6.75;2.70;;;;;;;;;;5016543;28;20037;-89
2022/10/12 05:03:15;;;;;;;9.27;3.03;;;;;;;;;;5022701;28;20052;-89
2022/10/12 05:05:43;;;;;;;7.07;2.75;;;;;;;;;;5018818;28;20093;-85
2022/10/12 05:08:12;;;;;;;8.60;2.75;;;;;;;;;;5013634;28;20345;-84
2022/10/12 05:10:39;;;;;;;7.05;3.33;;;;;;;;;;5015996;28;20767;-85
2022/10/12 05:13:05;;;;;;;11.00;2.72;;;;;;;;;;5018581;28;20501;-88
2022/10/12 05:15:30;;;;;;;8.20;2.95;;;;;;;;;;5012496;28;20112;-86
2022/10/12 05:17:56;;;;;;;8.23;3.20;;;;;;;;;;5010497;28;20085;-88
2022/10/12 05:20:22;;;;;;;8.40;2.75;;;;;;;;;;5011257;28;20869;-83
2022/10/12 05:22:48;;;;;;;8.70;2.63;;;;;;;;;;4987440;28;20030;-84
2022/10/12 05:25:14;;;;;;;10.63;3.05;;;7.30;99.90;;;;;;4993829;28;20056;-83
2022/10/12 05:27:40;;;;;;;9.68;2.72;;;;;;;;;;4996390;28;20030;-87
2022/10/12 05:30:07;;;;;;;9.50;2.85;;;;;;;;;;5011665;28;20308;-86
2022/10/12 05:32:33;;;;;;;7.70;3.10;;;;;;;;;;5002456;28;20022;-84
2022/10/12 05:34:59;;;;;;;6.13;2.50;;;;;;;;;;5025500;28;20050;-84
2022/10/12 05:37:25;;;;;;;8.38;2.78;;;;;;;;;;5013782;28;20109;-82
2022/10/12 05:39:51;;;;;;;9.30;2.95;;;;;;;;;;5013627;28;20036;-84
2022/10/12 05:42:17;;;;;;;8.98;2.80;;;;;;;;;;5014657;28;20033;-83
2022/10/12 05:44:43;;;;;;;8.85;2.78;;;;;;;;;;5009715;28;20026;-84
2022/10/12 05:47:09;;;;;;;10.70;3.60;;;;;;;;;;5016609;28;20101;-85
2022/10/12 05:49:35;;;;;;;8.68;3.08;;;;;;;;;;5013104;28;20029;-83
2022/10/12 05:52:01;;;;;;;8.55;3.67;;;;;;;;;;5013356;28;20029;-82
2022/10/12 05:54:27;;;;;;;9.85;3.38;;;;;;;;;;4995708;28;20041;-86
2022/10/12 05:56:53;;;;;;;13.48;3.30;;;;;;;;;;5010588;28;20161;-83
2022/10/12 05:59:19;;;;;;;7.10;2.90;;;;;;;;;;4997150;28;20036;-84
2022/10/12 06:01:45;;;;;;;10.98;3.40;;;;;;;;;;5013860;28;20048;-86
2022/10/12 06:04:11;;;;;;;8.60;3.88;;;;;;;;;;5016076;28;20032;-82
2022/10/12 06:06:38;;;;;;;8.25;3.45;;;;;;;;;;5016705;28;20045;-86
2022/10/12 06:09:04;;;;;;;10.40;3.30;;;;;;;;;;4973041;28;20657;-83
2022/10/12 06:11:30;;;;;;;8.25;3.20;;;;;;;;;;4990012;28;20072;-86
2022/10/12 06:13:56;;;;;;;12.55;3.38;;;;;;;;;;5006537;28;20464;-86
2022/10/12 06:16:22;;;;;;;13.43;3.20;;;;;;;;;;5002094;28;20030;-86
2022/10/12 06:18:48;;;;;;;12.55;2.83;;;;;;;;;;4991264;28;20391;-86
2022/10/12 06:21:14;;;;;;;11.18;3.20;;;;;;;;;;5007831;28;20033;-86
2022/10/12 06:23:40;;;;;;;8.02;2.95;;;;;;;;;;4990124;28;20038;-85
2022/10/12 06:26:06;;;;;;;35.85;18.13;;;;;;;;;;5006559;28;20053;-84
2022/10/12 06:28:32;;;;;;;10.00;3.40;;;;;;;;;;4989121;28;21709;-86
2022/10/12 06:31:00;;;;;;;13.63;3.55;;;8.70;99.90;;;;;;4991833;28;20021;-89
2022/10/12 06:33:26;;;;;;;8.23;2.53;;;8.80;99.90;;;;;;5014131;28;20479;-87
2022/10/12 06:35:53;;;;;;;11.00;3.08;;;;;;;;;;5011634;28;20033;-86
2022/10/12 06:38:19;;;;;;;9.82;3.15;;;;;;;;;;4992708;28;20038;-89
2022/10/12 06:40:45;;;;;;;15.73;3.80;;;;;;;;;;5008170;28;20030;-85
2022/10/12 06:43:11;;;;;;;11.57;3.95;;;;;;;;;;5012445;28;20066;-85
2022/10/12 06:45:39;;;;;;;11.80;3.72;;;;;;;;;;5002569;28;20038;-85
2022/10/12 06:48:06;;;;;;;16.45;4.05;;;;;;;;;;5006472;28;20170;-85
2022/10/12 06:50:32;;;;;;;15.35;3.70;;;;;;;;;;5005105;28;20077;-85
2022/10/12 06:52:57;;;;;;;9.07;3.65;;;9.10;99.90;;;;;;5010949;28;20034;-86
2022/10/12 06:55:23;;;;;;;11.30;3.70;;;;;;;;;;4992011;28;20484;-88
2022/10/12 06:57:49;;;;;;;8.77;3.22;;;9.20;99.90;;;;;;4991472;28;20064;-84
2022/10/12 07:00:15;;;;;;;14.30;3.80;;;;;;;;;;5008053;28;20054;-87
2022/10/12 07:02:41;;;;;;;10.23;3.22;;;;;;;;;;5000882;28;20033;-84
2022/10/12 07:05:07;;;;;;;9.25;3.55;;;9.20;99.90;;;;;;5008318;28;20026;-84
2022/10/12 07:07:35;;;;;;;8.98;2.90;;;9.10;99.90;;;;;;4990155;28;20022;-85
2022/10/12 07:10:01;;;;;;;10.10;3.25;;;9.00;99.90;;;;;;4995601;28;20033;-86
2022/10/12 07:12:26;;;;;;;11.88;3.70;;;9.20;99.90;;;;;;5009963;28;20108;-84
2022/10/12 07:14:53;;;;;;;10.40;3.58;;;9.30;99.90;;;;;;4997802;28;20035;-84
2022/10/12 07:17:19;;;;;;;14.43;3.17;;;;;;;;;;4995404;28;20123;-89
2022/10/12 07:19:45;;;;;;;11.98;3.22;;;;;;;;;;5007500;28;20058;-83
2022/10/12 07:22:11;;;;;;;9.43;3.20;;;;;;;;;;5010596;28;20049;-87
2022/10/12 07:24:37;;;;;;;7.28;2.90;;;;;;;;;;5010314;28;20033;-85
2022/10/12 07:27:06;;;;;;;16.42;3.03;;;9.70;99.90;;;;;;4987478;28;20030;-82
2022/10/12 07:29:33;;;;;;;10.93;3.42;;;9.80;99.90;;;;;;4991713;28;20417;-83
2022/10/12 07:31:59;;;;;;;10.70;3.28;;;9.80;99.90;;;;;;5009716;28;20383;-83
2022/10/12 07:34:25;;;;;;;11.90;4.03;;;9.80;99.90;;;;;;5014284;28;20026;-83
2022/10/12 07:36:51;;;;;;;13.63;3.88;;;10.70;99.90;;;;;;4990727;28;20064;-82
2022/10/12 07:39:23;;;;;;;10.00;3.30;;;9.90;99.90;;;;;;5010038;28;20037;-85
2022/10/12 07:41:50;;;;;;;8.32;2.85;;;10.00;99.90;;;;;;4995510;28;20084;-86
2022/10/12 07:44:16;;;;;;;10.48;3.45;;;10.00;99.90;;;;;;5011304;28;20069;-83
2022/10/12 07:46:42;;;;;;;11.90;3.00;;;10.20;99.90;;;;;;4985881;28;20496;-86
2022/10/12 07:49:11;;;;;;;11.38;2.38;;;10.20;99.90;;;;;;4991768;28;20172;-86
2022/10/12 07:51:37;;;;;;;9.85;3.05;;;;;;;;;;5009025;28;20037;-84
2022/10/12 07:54:03;;;;;;;5.88;2.75;;;10.30;99.90;;;;;;5011386;28;20507;-85
2022/10/12 07:56:30;;;;;;;5.50;2.40;;;10.40;99.90;;;;;;4995644;28;20152;-84
2022/10/12 07:58:57;;;;;;;12.05;3.00;;;10.40;99.90;;;;;;4991322;28;20541;-85
2022/10/12 08:01:25;;;;;;;9.43;2.65;;;10.60;99.90;;;;;;5002021;28;20030;-83
2022/10/12 08:03:51;;;;;;;8.02;3.00;;;10.60;99.90;;;;;;5003235;28;20034;-89
2022/10/12 08:06:21;;;;;;;8.82;2.33;;;11.00;99.90;;;;;;5029642;28;20072;-85
2022/10/12 08:08:46;;;;;;;7.82;2.30;;;10.80;99.90;;;;;;5017043;28;20098;-84
2022/10/12 08:11:13;;;;;;;11.25;3.05;;;;;;;;;;5007915;28;20037;-83
2022/10/12 08:13:39;;;;;;;13.00;3.00;;;11.00;99.90;;;;;;5012722;28;20061;-82
2022/10/12 08:16:09;;;;;;;9.68;2.95;;;12.50;99.90;;;;;;4993910;28;20034;-83
2022/10/12 08:18:44;;;;;;;10.25;3.58;;;11.10;99.90;;;;;;5018698;28;20483;-86
2022/10/12 08:21:11;;;;;;;9.93;3.05;;;12.40;99.90;;;;;;5010632;28;20093;-87
2022/10/12 08:23:37;;;;;;;11.70;3.13;;;11.10;99.90;;;;;;5001373;28;20030;-85
2022/10/12 08:26:04;;;;;;;8.63;2.63;;;11.10;99.90;;;;;;4994860;28;20026;-86
2022/10/12 08:28:30;;;;;;;11.13;2.95;;;;;;;;;;5027720;28;20037;-83
2022/10/12 08:30:56;;;;;;;9.43;3.15;;;;;;;;;;5010863;28;20026;-86
2022/10/12 08:33:21;;;;;;;11.05;3.45;;;11.20;99.90;;;;;;5012633;28;21025;-85
2022/10/12 08:35:48;;;;;;;11.38;3.47;;;;;;;;;;5011768;28;20024;-84
2022/10/12 08:38:14;;;;;;;10.43;3.60;;;11.30;99.90;;;;;;4992983;28;20114;-84
2022/10/12 08:40:48;;;;;;;9.30;3.33;;;11.30;99.90;;;;;;4994386;28;20033;-87
2022/10/12 08:43:48;;;;;;;13.02;4.13;;;11.40;99.90;;;;;;4998493;28;20049;-86
2022/10/12 08:46:17;;;;;;;15.20;3.90;;;11.50;99.90;;;;;;5017517;28;20077;-84
2022/10/12 08:48:53;;;;;;;19.67;5.00;;;11.60;99.90;;;;;;5018060;28;20484;-86
2022/10/12 08:51:22;;;;;;;14.18;4.03;;;11.60;99.90;;;;;;4997030;28;20025;-86
2022/10/12 08:53:59;;;;;;;17.00;4.80;;;11.60;99.90;;;;;;5020852;28;20030;-85
2022/10/12 08:56:25;;;;;;;13.75;3.83;;;11.60;99.90;;;;;;5033421;28;20022;-87
2022/10/12 08:58:52;;;;;;;12.10;4.00;;;11.60;99.90;;;;;;5003965;28;20034;-83
2022/10/12 09:01:24;;;;;;;8.80;3.45;;;;;;;;;;5003857;28;20037;-85
2022/10/12 09:04:13;;;;;;;15.60;4.57;;;11.80;99.90;;;;;;5013313;28;20022;-85
2022/10/12 09:06:39;;;;;;;13.98;3.83;;;;;;;;;;5019598;28;20250;-86
2022/10/12 09:09:38;;;;;;;14.65;3.88;;;12.00;99.90;;;;;;5023496;28;20037;-83
2022/10/12 09:12:22;;;;;;;13.85;4.03;;;12.00;99.90;;;;;;5022151;28;20018;-86
2022/10/12 09:14:52;;;;;;;15.50;4.20;;;12.10;99.90;;;;;;5024583;28;20022;-88
2022/10/12 09:17:23;;;;;;;13.13;4.65;;;14.80;99.90;;;;;;5001348;28;20069;-83
2022/10/12 09:19:57;;;;;;;13.35;4.32;;;12.30;99.90;;;;;;5006817;28;20030;-87
2022/10/12 09:22:24;;;;;;;16.42;4.50;;;;;;;;;;5027874;28;20325;-83
2022/10/12 09:24:51;;;;;;;16.90;4.03;;;;;;;;;;5030884;28;20022;-88
2022/10/12 09:27:18;;;;;;;9.38;4.32;;;12.40;99.90;;;;;;4999232;28;20030;-89
2022/10/12 09:29:47;;;;;;;14.15;4.25;;;12.40;99.90;;;;;;5032075;28;20037;-84
2022/10/12 09:32:23;;;;;;;17.48;4.07;;;12.40;99.90;;;;;;5014542;28;20014;-87
2022/10/12 09:34:50;;;;;;;13.38;3.58;;;;;;;;;;5014722;28;20014;-85
2022/10/12 09:37:22;;;;;;;20.35;4.35;;;12.50;99.90;;;;;;5028989;28;20036;-86
2022/10/12 09:39:48;;;;;;;17.40;4.93;;;12.50;99.90;;;;;;5025798;28;20037;-84
2022/10/12 09:42:15;;;;;;;19.92;4.13;;;12.50;99.90;;;;;;5035928;28;20089;-88
2022/10/12 09:44:47;;;;;;;13.15;4.43;;;12.60;99.90;;;;;;5033082;28;20045;-86
2022/10/12 09:47:23;;;;;;;18.27;4.72;;;12.70;99.90;;;;;;5011208;28;20014;-87
2022/10/12 09:49:51;;;;;;;13.55;4.75;;;12.70;99.90;;;;;;5030207;28;20027;-87
2022/10/12 09:52:22;;;;;;;17.23;5.05;;;12.70;99.90;;;;;;5015528;28;20029;-88
2022/10/12 09:54:51;;;;;;;12.50;4.40;;;;;;;;;;5031958;28;20097;-89
2022/10/12 09:57:22;;;;;;;19.75;4.40;;;;;;;;;;5013867;28;20276;-88
2022/10/12 09:59:48;;;;;;;16.35;4.70;;;;;;;;;;5028327;28;20014;-86
2022/10/12 10:02:17;;;;;;;18.15;4.72;;;;;;;;;;5036265;28;20046;-88
2022/10/12 10:04:44;;;;;;;20.05;5.28;;;13.00;99.90;;;;;;5030276;28;20097;-87
2022/10/12 10:07:19;;;;;;;13.77;4.60;;;13.00;99.90;;;;;;5025529;28;20053;-85
2022/10/12 10:09:46;;;;;;;12.68;5.15;;;13.00;99.90;;;;;;5013144;28;20033;-82
2022/10/12 10:12:25;;;;;;;16.38;4.68;;;13.10;99.90;;;;;;4997728;28;20097;-86
2022/10/12 10:14:52;;;;;;;13.52;5.15;;;13.20;99.90;;;;;;5021616;28;20045;-85
2022/10/12 10:17:32;;;;;;;19.23;5.80;;;13.20;99.90;;;;;;5017222;28;20057;-85
2022/10/12 10:20:00;;;;;;;17.85;5.70;;;13.20;99.90;;;;;;4996001;28;20026;-83
2022/10/12 10:22:28;;;;;;;14.38;5.18;;;15.30;99.90;;;;;;4995637;28;20034;-86
2022/10/12 10:25:09;;;;;;;18.90;5.80;;;;;;;;;;5001325;28;20025;-87
2022/10/12 10:27:37;;;;;;;13.57;5.38;;;13.40;99.90;;;;;;4998640;28;20070;-84
2022/10/12 10:30:33;;;;;;;14.93;5.53;;;13.40;99.90;;;;;;5013501;28;20026;-87
2022/10/12 10:33:18;;;;;;;16.08;5.53;;;13.50;99.90;;;;;;4996338;28;20066;-86
2022/10/12 10:36:07;;;;;;;16.38;5.53;;;13.60;99.90;;;;;;4998475;28;20542;-86
2022/10/12 10:38:53;;;;;;;14.00;5.95;;;13.60;99.90;;;;;;5002854;28;20022;-86
2022/10/12 10:41:19;;;;;;;19.30;6.97;;;;;;;;;;5006870;28;20505;-84
2022/10/12 10:43:48;;;;;;;17.85;6.63;;;13.50;99.90;;;;;;5020790;28;20065;-86
2022/10/12 10:46:20;;;;;;;20.35;6.65;;;13.70;99.90;;;;;;4996171;28;20029;-85
2022/10/12 10:48:57;;;;;;;16.52;6.32;;;13.80;99.90;;;;;;5012897;28;20026;-85
2022/10/12 10:51:40;;;;;;;19.05;6.00;;;14.00;99.90;;;;;;5013550;28;20040;-85
2022/10/12 10:55:04;;;;;;;;;;;;;;;;;;;;;
2022/10/12 10:57:34;;;;;;;16.98;6.20;;;;;;;;;;5013176;28;20069;-83
2022/10/12 11:00:03;;;;;;;19.25;6.38;;;;;;;;;;4994840;28;20029;-86
2022/10/12 11:05:38;;;;;;;17.35;6.60;;;;;;;;;;5020409;28;20048;-85
2022/10/12 11:08:10;;;;;;;19.63;6.80;;;;;;;;;;5023521;28;20747;-83
2022/10/12 11:10:46;;;;;;;18.05;8.52;;;;;;;;;;5038916;28;20097;-82
2022/10/12 11:13:20;;;;;;;13.93;6.53;;;;;;;;;;5041789;28;20018;-83
2022/10/12 11:16:01;;;;;;;16.70;6.75;;;;;;;;;;5016559;28;20516;-83
2022/10/12 11:18:34;;;;;;;15.70;6.55;;;;;;;;;;5039415;28;20036;-83
2022/10/12 11:21:04;;;;;;;14.00;6.75;;;;;;;;;;5039485;28;20071;-84
2022/10/12 11:23:37;;;;;;;16.60;6.70;;;;;;;;;;5042368;28;20033;-84
2022/10/12 11:26:07;;;;;;;19.42;7.68;;;;;;;;;;5021880;28;20030;-84
2022/10/12 11:28:33;;;;;;;19.38;7.78;;;;;;;;;;5023865;28;20128;-84
2022/10/12 11:31:01;;;;;;;18.90;7.35;;;;;;;;;;5045845;28;20025;-84
2022/10/12 11:33:37;;;;;;;15.75;6.95;;;;;;;;;;5046850;28;20032;-84
2022/10/12 11:36:03;;;;;;;16.67;7.78;;;;;;;;;;5051358;28;20025;-84
2022/10/12 11:38:46;;;;;;;17.13;8.00;;;;;;;;;;5024881;28;20060;-83
2022/10/12 11:41:37;;;;;;;13.98;7.30;;;;;;;;;;5056421;28;20033;-83
2022/10/12 11:44:24;;;;;;;17.42;7.60;;;;;;;;;;5046569;28;20036;-85
2022/10/12 11:46:58;;;;;;;16.67;7.72;;;;;;;;;;5031092;28;20020;-83
2022/10/12 11:49:27;;;;;;;20.50;8.15;;;;;;;;;;5040133;28;20025;-82
2022/10/12 11:51:56;;;;;;;18.63;7.85;;;;;;;;;;5048490;28;20034;-82
2022/10/12 11:54:34;;;;;;;22.10;8.75;;;;;;;;;;5020522;28;20025;-84
2022/10/12 11:57:04;;;;;;;18.85;8.38;;;;;;;;;;5045509;28;20025;-84
2022/10/12 11:59:45;;;;;;;21.55;8.75;;;;;;;;;;5035239;28;20037;-85
2022/10/12 12:02:29;;;;;;;25.42;8.20;;;;;;;;;;5034959;28;20030;-85
2022/10/12 12:04:55;;;;;;;16.65;8.38;;;;;;;;;;5038351;28;20029;-85
2022/10/12 12:07:52;;;;;;;28.20;9.07;;;14.60;99.90;;;;;;5057583;28;20018;-84
2022/10/12 12:10:25;;;;;;;17.45;8.98;;;;;;;;;;5039833;28;20041;-85
2022/10/12 12:13:10;;;;;;;19.20;9.05;;;;;;;;;;5028672;28;20048;-84
2022/10/12 12:15:36;;;;;;;18.08;8.60;;;;;;;;;;5048367;28;20097;-82
2022/10/12 12:18:28;;;;;;;17.95;9.70;;;;;;;;;;5038043;28;20038;-85
2022/10/12 12:21:08;;;;;;;16.65;8.95;;;;;;;;;;5038164;28;20033;-84
2022/10/12 12:23:37;;;;;;;22.20;9.85;;;;;;;;;;5041990;28;20084;-83
2022/10/12 12:26:14;;;;;;;18.35;8.57;;;;;;;;;;5016746;28;20061;-84
2022/10/12 12:28:43;;;;;;;22.38;9.13;;;;;;;;;;5036761;28;20033;-84
2022/10/12 12:31:13;;;;;;;20.45;8.20;;;;;;;;;;5023597;28;20102;-85
2022/10/12 12:33:42;;;;;;;19.30;8.25;;;;;;;;;;5042180;28;20052;-84
2022/10/12 12:36:10;;;;;;;20.08;9.10;;;;;;;;;;5041784;28;20407;-84
2022/10/12 12:38:43;;;;;;;20.70;9.20;;;;;;;;;;5041886;28;20033;-85
2022/10/12 12:41:15;;;;;;;18.02;8.20;;;;;;;;;;5042332;28;20033;-83
2022/10/12 12:43:44;;;;;;;18.23;9.45;;;;;;;;;;5023298;28;20033;-82
2022/10/12 12:46:12;;;;;;;22.63;9.13;;;;;;;;;;5044690;28;20029;-83
2022/10/12 12:48:41;;;;;;;17.70;9.43;;;;;;;;;;5006070;28;20041;-83
2022/10/12 12:51:09;;;;;;;20.58;9.57;;;;;;;;;;5029620;28;20165;-82
2022/10/12 12:53:39;;;;;;;18.13;8.52;;;;;;;;;;5042310;28;20025;-83
2022/10/12 12:56:13;;;;;;;15.77;8.75;;;;;;;;;;5042135;28;20048;-84
2022/10/12 12:59:02;;;;;;;18.27;8.90;;;;;;;;;;5041095;28;20044;-83
2022/10/12 13:01:55;;;;;;;21.92;10.73;;;;;;;;;;5035773;28;20044;-83
2022/10/12 13:04:34;;;;;;;18.58;8.50;;;;;;;;;;5013562;28;20388;-81
2022/10/12 13:07:23;;;;;;;17.02;8.55;;;;;;;;;;5034077;28;20088;-83
2022/10/12 13:10:07;;;;;;;23.15;9.38;;;15.00;99.90;;;;;;5048468;28;20114;-82
2022/10/12 13:12:39;;;;;;;24.67;9.15;;;;;;;;;;5027642;28;20034;-83
2022/10/12 13:15:28;;;;;;;19.13;7.90;;;;;;;;;;5037739;28;20098;-83
2022/10/12 13:17:57;;;;;;;18.15;8.25;;;;;;;;;;5039343;28;20021;-85
2022/10/12 13:20:34;;;;;;;17.77;8.50;;;;;;;;;;5054000;28;20024;-84
2022/10/12 13:23:03;;;;;;;25.25;10.32;;;;;;;;;;5056487;28;20010;-84
2022/10/12 13:25:35;;;;;;;17.75;9.27;;;;;;;;;;5028861;28;20040;-84
2022/10/12 13:28:04;;;;;;;18.58;8.27;;;;;;;;;;5043858;28;20101;-84
2022/10/12 13:30:41;;;;;;;17.17;8.50;;;;;;;;;;5041194;28;20041;-84
2022/10/12 13:33:10;;;;;;;17.15;7.63;;;;;;;;;;5032387;28;20026;-81
2022/10/12 13:35:36;;;;;;;18.75;8.40;;;;;;;;;;5023483;28;20526;-81
2022/10/12 13:38:16;;;;;;;21.27;8.40;;;;;;;;;;5032416;28;20033;-82
2022/10/12 13:41:01;;;;;;;17.38;8.77;;;;;;;;;;5021157;28;20037;-83
2022/10/12 13:43:39;;;;;;;24.33;8.70;;;;;;;;;;5010450;28;20071;-82
2022/10/12 13:46:05;;;;;;;21.60;9.60;;;;;;;;;;5030804;28;20029;-81
2022/10/12 13:48:31;;;;;;;17.55;8.20;;;;;;;;;;5042184;28;20034;-82
2022/10/12 13:51:01;;;;;;;19.75;8.70;;;;;;;;;;5023612;28;20022;-83
2022/10/12 13:53:34;;;;;;;15.35;7.68;;;;;;;;;;5040122;28;20063;-82
2022/10/12 13:56:04;;;;;;;16.77;7.90;;;16.10;99.90;;;;;;5015849;28;20111;-83
2022/10/12 13:58:34;;;;;;;16.73;6.97;;;;;;;;;;5021968;28;20022;-84
2022/10/12 14:01:04;;;;;;;14.73;6.78;;;;;;;;;;5011376;28;20048;-84
2022/10/12 14:03:40;;;;;;;17.67;6.80;;;;;;;;;;5033493;28;20509;-84
2022/10/12 14:06:22;;;;;;;16.92;7.70;;;;;;;;;;5015932;28;20026;-83
2022/10/12 14:08:48;;;;;;;16.55;7.35;;;;;;;;;;5016550;28;20029;-84
2022/10/12 14:11:16;;;;;;;18.00;8.07;;;;;;;;;;5038321;28;20068;-82
2022/10/12 14:13:44;;;;;;;21.65;8.60;;;;;;;;;;5039502;28;20576;-85
2022/10/12 14:16:11;;;;;;;23.25;7.95;;;;;;;;;;5041518;28;20029;-85
2022/10/12 14:18:45;;;;;;;16.20;8.13;;;;;;;;;;5016439;28;20028;-84
2022/10/12 14:21:13;;;;;;;17.23;8.68;;;;;;;;;;5039847;28;20052;-83
2022/10/12 14:23:43;;;;;;;17.85;7.90;;;;;;;;;;5043821;28;20037;-84
2022/10/12 14:26:32;;;;;;;16.83;7.47;;;;;;;;;;5027110;28;20518;-84
2022/10/12 14:28:59;;;;;;;21.35;7.60;;;;;;;;;;5017225;28;20033;-84